Smithfield, Illinois
Current Conditions -  °F | °C
As of 10:15 AM on Wednesday 26 Nov 2014 (Local Time) from KMQB Reporting Station
Overcast Overcast  
Wind Chill: 20°   Ceiling: 5000
Heat Index: 30°   Visibility: 10mi
Dew Point: 28°   Wind: 13mph
Humidity: 93%   Direction: 130°SE
Pressure: 30.05"   Gusts: NA
Location:  40.47°N, 90.29°W
Report Text: KMQB 261615Z AUTO 13011KT 10SM OVC050 M01/M02 A3005 RMK AO2 T10111021
Loading
Personal Weather Stations






























Interactive Weather Map New forecast layout! Learn more

10-Day Weather Forecast

Advertisements
Track Severe Weather on mobile